sensor_id;sensor_type;location;lat;lon;timestamp;temperature;humidity
71754;DHT22;59593;51.716;7.016;2022-10-26T00:01:09;9.80;99.90
71754;DHT22;59593;51.716;7.016;2022-10-26T00:03:36;9.80;99.90
71754;DHT22;59593;51.716;7.016;2022-10-26T00:06:24;9.90;99.90
71754;DHT22;59593;51.716;7.016;2022-10-26T00:08:50;9.90;99.90
71754;DHT22;59593;51.716;7.016;2022-10-26T00:11:17;9.90;99.90
71754;DHT22;59593;51.716;7.016;2022-10-26T00:13:44;9.90;99.90
71754;DHT22;59593;51.716;7.016;2022-10-26T00:16:22;9.90;99.90
71754;DHT22;59593;51.716;7.016;2022-10-26T00:18:48;9.90;99.90
71754;DHT22;59593;51.716;7.016;2022-10-26T00:21:14;9.90;99.90
71754;DHT22;59593;51.716;7.016;2022-10-26T00:23:40;9.90;99.90
71754;DHT22;59593;51.716;7.016;2022-10-26T00:26:06;9.90;99.90
71754;DHT22;59593;51.716;7.016;2022-10-26T00:28:32;9.90;99.90
71754;DHT22;59593;51.716;7.016;2022-10-26T00:31:03;9.90;99.90
71754;DHT22;59593;51.716;7.016;2022-10-26T00:33:30;10.00;99.90
71754;DHT22;59593;51.716;7.016;2022-10-26T00:35:56;10.10;99.90
71754;DHT22;59593;51.716;7.016;2022-10-26T00:38:22;10.10;99.90
71754;DHT22;59593;51.716;7.016;2022-10-26T00:40:48;10.10;99.90
71754;DHT22;59593;51.716;7.016;2022-10-26T00:45:46;10.10;99.90
71754;DHT22;59593;51.716;7.016;2022-10-26T00:48:25;10.20;99.90
71754;DHT22;59593;51.716;7.016;2022-10-26T00:50:53;10.20;99.90
71754;DHT22;59593;51.716;7.016;2022-10-26T00:53:20;10.20;99.90
71754;DHT22;59593;51.716;7.016;2022-10-26T00:55:48;10.20;99.90
71754;DHT22;59593;51.716;7.016;2022-10-26T00:58:14;10.30;99.90
71754;DHT22;59593;51.716;7.016;2022-10-26T01:00:41;10.30;99.90
71754;DHT22;59593;51.716;7.016;2022-10-26T01:03:08;10.30;99.90
71754;DHT22;59593;51.716;7.016;2022-10-26T01:05:37;10.20;99.90
71754;DHT22;59593;51.716;7.016;2022-10-26T01:08:05;10.20;99.90
71754;DHT22;59593;51.716;7.016;2022-10-26T01:10:31;10.30;99.90
71754;DHT22;59593;51.716;7.016;2022-10-26T01:12:59;10.30;99.90
71754;DHT22;59593;51.716;7.016;2022-10-26T01:15:35;10.30;99.90
71754;DHT22;59593;51.716;7.016;2022-10-26T01:21:13;10.40;99.90
71754;DHT22;59593;51.716;7.016;2022-10-26T01:31:54;10.40;99.90
71754;DHT22;59593;51.716;7.016;2022-10-26T01:34:38;10.40;99.90
71754;DHT22;59593;51.716;7.016;2022-10-26T01:37:14;10.40;99.90
71754;DHT22;59593;51.716;7.016;2022-10-26T01:40:01;10.50;99.90
71754;DHT22;59593;51.716;7.016;2022-10-26T01:42:28;10.50;99.90
71754;DHT22;59593;51.716;7.016;2022-10-26T01:45:03;10.60;99.90
71754;DHT22;59593;51.716;7.016;2022-10-26T01:47:30;10.50;99.90
71754;DHT22;59593;51.716;7.016;2022-10-26T01:49:58;10.60;99.90
71754;DHT22;59593;51.716;7.016;2022-10-26T01:52:25;10.60;99.90
71754;DHT22;59593;51.716;7.016;2022-10-26T01:54:51;10.60;99.90
71754;DHT22;59593;51.716;7.016;2022-10-26T01:57:18;10.60;99.90
71754;DHT22;59593;51.716;7.016;2022-10-26T02:05:19;10.70;99.90
71754;DHT22;59593;51.716;7.016;2022-10-26T02:13:36;10.70;99.90
71754;DHT22;59593;51.716;7.016;2022-10-26T02:16:13;10.70;99.90
71754;DHT22;59593;51.716;7.016;2022-10-26T02:21:47;10.80;99.90
71754;DHT22;59593;51.716;7.016;2022-10-26T02:24:16;10.70;99.90
71754;DHT22;59593;51.716;7.016;2022-10-26T02:26:44;10.80;99.90
71754;DHT22;59593;51.716;7.016;2022-10-26T02:29:14;10.70;99.90
71754;DHT22;59593;51.716;7.016;2022-10-26T02:31:42;10.70;99.90
71754;DHT22;59593;51.716;7.016;2022-10-26T02:34:11;10.70;99.90
71754;DHT22;59593;51.716;7.016;2022-10-26T02:36:41;10.70;99.90
71754;DHT22;59593;51.716;7.016;2022-10-26T02:39:10;10.60;99.90
71754;DHT22;59593;51.716;7.016;2022-10-26T02:41:38;10.60;99.90
71754;DHT22;59593;51.716;7.016;2022-10-26T02:46:47;10.60;99.90
71754;DHT22;59593;51.716;7.016;2022-10-26T02:49:12;10.70;99.90
71754;DHT22;59593;51.716;7.016;2022-10-26T02:51:46;10.60;99.90
71754;DHT22;59593;51.716;7.016;2022-10-26T02:54:35;10.60;99.90
71754;DHT22;59593;51.716;7.016;2022-10-26T02:57:11;10.60;99.90
71754;DHT22;59593;51.716;7.016;2022-10-26T02:59:40;10.70;99.90
71754;DHT22;59593;51.716;7.016;2022-10-26T03:02:07;10.80;99.90
71754;DHT22;59593;51.716;7.016;2022-10-26T03:04:34;10.80;99.90
71754;DHT22;59593;51.716;7.016;2022-10-26T03:07:00;10.80;99.90
71754;DHT22;59593;51.716;7.016;2022-10-26T03:09:26;10.90;99.90
71754;DHT22;59593;51.716;7.016;2022-10-26T03:11:52;10.80;99.90
71754;DHT22;59593;51.716;7.016;2022-10-26T03:14:18;10.80;99.90
71754;DHT22;59593;51.716;7.016;2022-10-26T03:16:43;10.80;99.90
71754;DHT22;59593;51.716;7.016;2022-10-26T03:19:09;10.80;99.90
71754;DHT22;59593;51.716;7.016;2022-10-26T03:21:34;10.90;99.90
71754;DHT22;59593;51.716;7.016;2022-10-26T03:24:00;10.90;99.90
71754;DHT22;59593;51.716;7.016;2022-10-26T03:26:25;10.90;99.90
71754;DHT22;59593;51.716;7.016;2022-10-26T03:28:51;10.90;99.90
71754;DHT22;59593;51.716;7.016;2022-10-26T03:31:17;11.00;99.90
71754;DHT22;59593;51.716;7.016;2022-10-26T03:33:42;11.00;99.90
71754;DHT22;59593;51.716;7.016;2022-10-26T03:36:08;11.00;99.90
71754;DHT22;59593;51.716;7.016;2022-10-26T03:38:34;11.00;99.90
71754;DHT22;59593;51.716;7.016;2022-10-26T03:41:00;11.10;99.90
71754;DHT22;59593;51.716;7.016;2022-10-26T03:43:25;11.10;99.90
71754;DHT22;59593;51.716;7.016;2022-10-26T03:45:51;11.10;99.90
71754;DHT22;59593;51.716;7.016;2022-10-26T03:48:17;11.10;99.90
71754;DHT22;59593;51.716;7.016;2022-10-26T03:50:43;11.10;99.90
71754;DHT22;59593;51.716;7.016;2022-10-26T03:53:08;11.10;99.90
71754;DHT22;59593;51.716;7.016;2022-10-26T03:55:34;11.10;99.90
71754;DHT22;59593;51.716;7.016;2022-10-26T03:57:59;11.20;99.90
71754;DHT22;59593;51.716;7.016;2022-10-26T04:00:25;11.10;99.90
71754;DHT22;59593;51.716;7.016;2022-10-26T04:02:55;11.10;99.90
71754;DHT22;59593;51.716;7.016;2022-10-26T04:05:22;11.20;99.90
71754;DHT22;59593;51.716;7.016;2022-10-26T04:07:53;11.20;99.90
71754;DHT22;59593;51.716;7.016;2022-10-26T04:10:19;11.20;99.90
71754;DHT22;59593;51.716;7.016;2022-10-26T04:12:45;11.20;99.90
71754;DHT22;59593;51.716;7.016;2022-10-26T04:15:10;11.30;99.90
71754;DHT22;59593;51.716;7.016;2022-10-26T04:17:36;11.30;99.90
71754;DHT22;59593;51.716;7.016;2022-10-26T04:20:02;11.30;99.90
71754;DHT22;59593;51.716;7.016;2022-10-26T04:22:27;11.30;99.90
71754;DHT22;59593;51.716;7.016;2022-10-26T04:24:53;11.30;99.90
71754;DHT22;59593;51.716;7.016;2022-10-26T04:27:18;11.20;99.90
71754;DHT22;59593;51.716;7.016;2022-10-26T04:29:44;11.20;99.90
71754;DHT22;59593;51.716;7.016;2022-10-26T04:32:09;11.30;99.90
71754;DHT22;59593;51.716;7.016;2022-10-26T04:34:35;11.30;99.90
71754;DHT22;59593;51.716;7.016;2022-10-26T04:37:03;11.30;99.90
71754;DHT22;59593;51.716;7.016;2022-10-26T04:39:29;11.30;99.90
71754;DHT22;59593;51.716;7.016;2022-10-26T04:41:55;11.30;99.90
71754;DHT22;59593;51.716;7.016;2022-10-26T04:44:20;11.30;99.90
71754;DHT22;59593;51.716;7.016;2022-10-26T04:46:46;11.30;99.90
71754;DHT22;59593;51.716;7.016;2022-10-26T04:49:11;11.30;99.90
71754;DHT22;59593;51.716;7.016;2022-10-26T04:51:37;11.30;99.90
71754;DHT22;59593;51.716;7.016;2022-10-26T04:54:03;11.30;99.90
71754;DHT22;59593;51.716;7.016;2022-10-26T04:56:28;11.30;99.90
71754;DHT22;59593;51.716;7.016;2022-10-26T04:58:54;11.30;99.90
71754;DHT22;59593;51.716;7.016;2022-10-26T05:01:20;11.30;99.90
71754;DHT22;59593;51.716;7.016;2022-10-26T05:03:52;11.30;99.90
71754;DHT22;59593;51.716;7.016;2022-10-26T05:06:18;11.30;99.90
71754;DHT22;59593;51.716;7.016;2022-10-26T05:08:44;11.30;99.90
71754;DHT22;59593;51.716;7.016;2022-10-26T05:11:10;11.30;99.90
71754;DHT22;59593;51.716;7.016;2022-10-26T05:13:35;11.30;99.90
71754;DHT22;59593;51.716;7.016;2022-10-26T05:16:01;11.30;99.90
71754;DHT22;59593;51.716;7.016;2022-10-26T05:18:26;11.30;99.90
71754;DHT22;59593;51.716;7.016;2022-10-26T05:20:52;11.30;99.90
71754;DHT22;59593;51.716;7.016;2022-10-26T05:23:18;11.30;99.90
71754;DHT22;59593;51.716;7.016;2022-10-26T05:25:44;11.40;99.90
71754;DHT22;59593;51.716;7.016;2022-10-26T05:28:11;11.40;99.90
71754;DHT22;59593;51.716;7.016;2022-10-26T05:30:38;11.40;99.90
71754;DHT22;59593;51.716;7.016;2022-10-26T05:33:04;11.40;99.90
71754;DHT22;59593;51.716;7.016;2022-10-26T05:35:32;11.40;99.90
71754;DHT22;59593;51.716;7.016;2022-10-26T05:37:57;11.40;99.90
71754;DHT22;59593;51.716;7.016;2022-10-26T05:40:23;11.40;99.90
71754;DHT22;59593;51.716;7.016;2022-10-26T05:42:49;11.40;99.90
71754;DHT22;59593;51.716;7.016;2022-10-26T05:45:15;11.40;99.90
71754;DHT22;59593;51.716;7.016;2022-10-26T05:47:43;11.40;99.90
71754;DHT22;59593;51.716;7.016;2022-10-26T05:50:10;11.40;99.90
71754;DHT22;59593;51.716;7.016;2022-10-26T05:52:43;11.50;99.90
71754;DHT22;59593;51.716;7.016;2022-10-26T05:55:11;11.50;99.90
71754;DHT22;59593;51.716;7.016;2022-10-26T05:57:37;11.50;99.90
71754;DHT22;59593;51.716;7.016;2022-10-26T06:00:11;11.60;99.90
71754;DHT22;59593;51.716;7.016;2022-10-26T06:02:52;11.60;99.90
71754;DHT22;59593;51.716;7.016;2022-10-26T06:05:25;11.60;99.90
71754;DHT22;59593;51.716;7.016;2022-10-26T06:07:52;11.60;99.90
71754;DHT22;59593;51.716;7.016;2022-10-26T06:10:18;11.70;99.90
71754;DHT22;59593;51.716;7.016;2022-10-26T06:12:44;11.70;99.90
71754;DHT22;59593;51.716;7.016;2022-10-26T06:15:18;11.70;99.90
71754;DHT22;59593;51.716;7.016;2022-10-26T06:17:48;11.70;99.90
71754;DHT22;59593;51.716;7.016;2022-10-26T06:26:07;11.80;99.90
71754;DHT22;59593;51.716;7.016;2022-10-26T06:31:06;11.80;99.90
71754;DHT22;59593;51.716;7.016;2022-10-26T06:33:32;11.80;99.90
71754;DHT22;59593;51.716;7.016;2022-10-26T06:38:33;11.80;99.90
71754;DHT22;59593;51.716;7.016;2022-10-26T06:40:59;11.80;99.90
71754;DHT22;59593;51.716;7.016;2022-10-26T06:43:31;11.80;99.90
71754;DHT22;59593;51.716;7.016;2022-10-26T06:46:26;11.80;99.90
71754;DHT22;59593;51.716;7.016;2022-10-26T06:49:29;11.80;99.90
71754;DHT22;59593;51.716;7.016;2022-10-26T06:52:00;11.90;99.90
71754;DHT22;59593;51.716;7.016;2022-10-26T06:57:03;11.90;99.90
71754;DHT22;59593;51.716;7.016;2022-10-26T06:59:35;11.90;99.90
71754;DHT22;59593;51.716;7.016;2022-10-26T07:02:01;12.00;99.90
71754;DHT22;59593;51.716;7.016;2022-10-26T07:04:27;12.10;99.90
71754;DHT22;59593;51.716;7.016;2022-10-26T07:06:53;12.10;99.90
71754;DHT22;59593;51.716;7.016;2022-10-26T07:09:21;12.10;99.90
71754;DHT22;59593;51.716;7.016;2022-10-26T07:11:47;12.20;99.90
71754;DHT22;59593;51.716;7.016;2022-10-26T07:14:12;12.20;99.90
71754;DHT22;59593;51.716;7.016;2022-10-26T07:16:38;12.30;99.90
71754;DHT22;59593;51.716;7.016;2022-10-26T07:19:04;12.30;99.90
71754;DHT22;59593;51.716;7.016;2022-10-26T07:21:29;12.40;99.90
71754;DHT22;59593;51.716;7.016;2022-10-26T07:23:55;12.50;99.90
71754;DHT22;59593;51.716;7.016;2022-10-26T07:26:21;12.50;99.90
71754;DHT22;59593;51.716;7.016;2022-10-26T07:28:48;12.50;99.90
71754;DHT22;59593;51.716;7.016;2022-10-26T07:31:15;12.50;99.90
71754;DHT22;59593;51.716;7.016;2022-10-26T07:33:40;12.60;99.90
71754;DHT22;59593;51.716;7.016;2022-10-26T07:36:07;12.60;99.90
71754;DHT22;59593;51.716;7.016;2022-10-26T07:38:35;12.70;99.90
71754;DHT22;59593;51.716;7.016;2022-10-26T07:41:03;12.70;99.90
71754;DHT22;59593;51.716;7.016;2022-10-26T07:43:29;12.80;99.90
71754;DHT22;59593;51.716;7.016;2022-10-26T07:45:54;12.80;99.90
71754;DHT22;59593;51.716;7.016;2022-10-26T07:48:20;12.90;99.90
71754;DHT22;59593;51.716;7.016;2022-10-26T07:50:45;12.90;99.90
71754;DHT22;59593;51.716;7.016;2022-10-26T07:53:11;12.90;99.90
71754;DHT22;59593;51.716;7.016;2022-10-26T07:55:37;13.00;99.90
71754;DHT22;59593;51.716;7.016;2022-10-26T07:58:02;12.90;99.90
71754;DHT22;59593;51.716;7.016;2022-10-26T08:00:28;12.80;99.90
71754;DHT22;59593;51.716;7.016;2022-10-26T08:02:54;12.80;99.90
71754;DHT22;59593;51.716;7.016;2022-10-26T08:05:20;12.80;99.90
71754;DHT22;59593;51.716;7.016;2022-10-26T08:07:46;12.80;99.90
71754;DHT22;59593;51.716;7.016;2022-10-26T08:10:12;12.90;99.90
71754;DHT22;59593;51.716;7.016;2022-10-26T08:12:39;13.00;99.90
71754;DHT22;59593;51.716;7.016;2022-10-26T08:15:05;13.10;99.90
71754;DHT22;59593;51.716;7.016;2022-10-26T08:17:31;13.20;99.90
71754;DHT22;59593;51.716;7.016;2022-10-26T08:19:58;13.30;99.90
71754;DHT22;59593;51.716;7.016;2022-10-26T08:22:23;13.30;99.90
71754;DHT22;59593;51.716;7.016;2022-10-26T08:24:49;13.30;99.90
71754;DHT22;59593;51.716;7.016;2022-10-26T08:27:14;13.30;99.90
71754;DHT22;59593;51.716;7.016;2022-10-26T08:29:41;13.30;99.90
71754;DHT22;59593;51.716;7.016;2022-10-26T08:32:07;13.40;99.90
71754;DHT22;59593;51.716;7.016;2022-10-26T08:34:33;13.40;99.90
71754;DHT22;59593;51.716;7.016;2022-10-26T08:36:58;13.60;99.90
71754;DHT22;59593;51.716;7.016;2022-10-26T08:39:24;13.70;99.90
71754;DHT22;59593;51.716;7.016;2022-10-26T08:41:57;13.90;99.90
71754;DHT22;59593;51.716;7.016;2022-10-26T08:44:41;14.00;99.90
71754;DHT22;59593;51.716;7.016;2022-10-26T08:47:22;14.10;99.90
71754;DHT22;59593;51.716;7.016;2022-10-26T08:52:35;14.20;99.90
71754;DHT22;59593;51.716;7.016;2022-10-26T08:55:03;14.30;99.90
71754;DHT22;59593;51.716;7.016;2022-10-26T08:57:38;14.40;99.90
71754;DHT22;59593;51.716;7.016;2022-10-26T09:00:10;14.50;99.90
71754;DHT22;59593;51.716;7.016;2022-10-26T09:02:36;14.60;99.90
71754;DHT22;59593;51.716;7.016;2022-10-26T09:05:13;14.80;99.90
71754;DHT22;59593;51.716;7.016;2022-10-26T09:15:51;15.40;99.90
71754;DHT22;59593;51.716;7.016;2022-10-26T09:23:56;16.00;99.90
71754;DHT22;59593;51.716;7.016;2022-10-26T09:26:57;16.10;99.90
71754;DHT22;59593;51.716;7.016;2022-10-26T09:29:34;16.20;99.90
71754;DHT22;59593;51.716;7.016;2022-10-26T09:32:01;16.30;99.90
71754;DHT22;59593;51.716;7.016;2022-10-26T09:35:08;16.40;99.90
71754;DHT22;59593;51.716;7.016;2022-10-26T09:37:33;16.60;99.90
71754;DHT22;59593;51.716;7.016;2022-10-26T09:40:20;16.70;99.90
71754;DHT22;59593;51.716;7.016;2022-10-26T09:42:58;16.90;99.90
71754;DHT22;59593;51.716;7.016;2022-10-26T09:45:31;17.10;99.90
71754;DHT22;59593;51.716;7.016;2022-10-26T09:48:32;17.30;99.90
71754;DHT22;59593;51.716;7.016;2022-10-26T09:51:00;17.50;99.90
71754;DHT22;59593;51.716;7.016;2022-10-26T09:53:26;17.80;99.90
71754;DHT22;59593;51.716;7.016;2022-10-26T09:56:00;18.00;99.90
71754;DHT22;59593;51.716;7.016;2022-10-26T09:58:31;18.20;99.90
71754;DHT22;59593;51.716;7.016;2022-10-26T10:00:59;18.30;99.90
71754;DHT22;59593;51.716;7.016;2022-10-26T10:03:30;18.20;99.90
71754;DHT22;59593;51.716;7.016;2022-10-26T10:06:18;18.20;99.90
71754;DHT22;59593;51.716;7.016;2022-10-26T10:09:06;18.20;99.90
71754;DHT22;59593;51.716;7.016;2022-10-26T10:14:12;18.50;99.90
71754;DHT22;59593;51.716;7.016;2022-10-26T10:16:39;18.50;99.90
71754;DHT22;59593;51.716;7.016;2022-10-26T10:19:05;18.60;99.90
71754;DHT22;59593;51.716;7.016;2022-10-26T10:21:48;18.80;99.90
71754;DHT22;59593;51.716;7.016;2022-10-26T10:24:23;19.00;99.90
71754;DHT22;59593;51.716;7.016;2022-10-26T10:26:56;18.80;99.90
71754;DHT22;59593;51.716;7.016;2022-10-26T10:29:25;18.50;99.90
71754;DHT22;59593;51.716;7.016;2022-10-26T10:31:56;18.30;99.90
71754;DHT22;59593;51.716;7.016;2022-10-26T10:34:22;18.20;99.90
71754;DHT22;59593;51.716;7.016;2022-10-26T10:36:48;18.50;99.90
71754;DHT22;59593;51.716;7.016;2022-10-26T10:42:00;20.10;99.90
71754;DHT22;59593;51.716;7.016;2022-10-26T10:44:28;20.50;99.90
71754;DHT22;59593;51.716;7.016;2022-10-26T10:47:03;20.90;99.90
71754;DHT22;59593;51.716;7.016;2022-10-26T10:49:29;21.30;99.90
71754;DHT22;59593;51.716;7.016;2022-10-26T10:51:55;21.70;99.90
71754;DHT22;59593;51.716;7.016;2022-10-26T10:54:31;21.80;99.90
71754;DHT22;59593;51.716;7.016;2022-10-26T10:57:03;21.60;99.90
71754;DHT22;59593;51.716;7.016;2022-10-26T10:59:49;21.40;99.90
71754;DHT22;59593;51.716;7.016;2022-10-26T11:07:28;21.60;99.90
71754;DHT22;59593;51.716;7.016;2022-10-26T11:09:55;21.30;99.90
71754;DHT22;59593;51.716;7.016;2022-10-26T11:12:30;21.50;99.90
71754;DHT22;59593;51.716;7.016;2022-10-26T11:15:06;22.20;99.90
71754;DHT22;59593;51.716;7.016;2022-10-26T11:17:54;22.50;99.90
71754;DHT22;59593;51.716;7.016;2022-10-26T11:20:25;22.90;99.90
71754;DHT22;59593;51.716;7.016;2022-10-26T11:25:32;23.00;99.90
71754;DHT22;59593;51.716;7.016;2022-10-26T11:28:04;23.30;99.90
71754;DHT22;59593;51.716;7.016;2022-10-26T11:30:35;23.10;99.90
71754;DHT22;59593;51.716;7.016;2022-10-26T11:33:18;22.40;99.90
71754;DHT22;59593;51.716;7.016;2022-10-26T11:35:55;22.20;99.90
71754;DHT22;59593;51.716;7.016;2022-10-26T11:41:37;22.60;99.90
71754;DHT22;59593;51.716;7.016;2022-10-26T11:44:12;22.60;99.90
71754;DHT22;59593;51.716;7.016;2022-10-26T11:46:51;23.00;99.90
71754;DHT22;59593;51.716;7.016;2022-10-26T11:52:21;22.80;99.90
71754;DHT22;59593;51.716;7.016;2022-10-26T11:54:58;23.10;99.90
71754;DHT22;59593;51.716;7.016;2022-10-26T11:57:32;23.00;99.90
71754;DHT22;59593;51.716;7.016;2022-10-26T12:00:16;23.20;99.90
71754;DHT22;59593;51.716;7.016;2022-10-26T12:03:06;23.40;99.90
71754;DHT22;59593;51.716;7.016;2022-10-26T12:08:05;23.20;99.90
71754;DHT22;59593;51.716;7.016;2022-10-26T12:10:38;23.50;99.90
71754;DHT22;59593;51.716;7.016;2022-10-26T12:15:44;23.60;99.90
71754;DHT22;59593;51.716;7.016;2022-10-26T12:18:32;23.90;99.90
71754;DHT22;59593;51.716;7.016;2022-10-26T12:21:03;24.20;99.90
71754;DHT22;59593;51.716;7.016;2022-10-26T12:23:36;24.60;99.90
71754;DHT22;59593;51.716;7.016;2022-10-26T12:34:25;24.20;99.90
71754;DHT22;59593;51.716;7.016;2022-10-26T12:37:21;23.90;99.90
71754;DHT22;59593;51.716;7.016;2022-10-26T12:39:47;24.20;99.90
71754;DHT22;59593;51.716;7.016;2022-10-26T12:47:09;24.70;99.90
71754;DHT22;59593;51.716;7.016;2022-10-26T12:50:00;24.80;99.90
71754;DHT22;59593;51.716;7.016;2022-10-26T12:52:52;25.20;99.90
71754;DHT22;59593;51.716;7.016;2022-10-26T13:09:23;23.30;99.90
71754;DHT22;59593;51.716;7.016;2022-10-26T13:11:56;23.40;99.90
71754;DHT22;59593;51.716;7.016;2022-10-26T13:14:35;23.20;99.90
71754;DHT22;59593;51.716;7.016;2022-10-26T13:17:03;22.70;99.90
71754;DHT22;59593;51.716;7.016;2022-10-26T13:19:40;22.20;99.90
71754;DHT22;59593;51.716;7.016;2022-10-26T13:22:13;22.40;99.90
71754;DHT22;59593;51.716;7.016;2022-10-26T13:24:47;22.10;99.90
71754;DHT22;59593;51.716;7.016;2022-10-26T13:32:41;23.50;99.90
71754;DHT22;59593;51.716;7.016;2022-10-26T13:35:13;24.10;99.90
71754;DHT22;59593;51.716;7.016;2022-10-26T13:37:43;24.00;99.90
71754;DHT22;59593;51.716;7.016;2022-10-26T13:40:12;23.30;99.90
71754;DHT22;59593;51.716;7.016;2022-10-26T13:42:46;22.90;99.90
71754;DHT22;59593;51.716;7.016;2022-10-26T13:45:24;23.10;99.90
71754;DHT22;59593;51.716;7.016;2022-10-26T13:48:01;23.50;99.90
71754;DHT22;59593;51.716;7.016;2022-10-26T13:50:46;23.70;99.90
71754;DHT22;59593;51.716;7.016;2022-10-26T13:55:54;25.10;99.90
71754;DHT22;59593;51.716;7.016;2022-10-26T13:58:32;25.00;99.90
71754;DHT22;59593;51.716;7.016;2022-10-26T14:03:28;24.70;99.90
71754;DHT22;59593;51.716;7.016;2022-10-26T14:05:55;25.00;99.90
71754;DHT22;59593;51.716;7.016;2022-10-26T14:08:21;25.10;99.90
71754;DHT22;59593;51.716;7.016;2022-10-26T14:10:55;24.60;99.90
71754;DHT22;59593;51.716;7.016;2022-10-26T14:13:23;24.40;99.90
71754;DHT22;59593;51.716;7.016;2022-10-26T14:15:53;24.20;99.90
71754;DHT22;59593;51.716;7.016;2022-10-26T14:18:25;24.20;99.90
71754;DHT22;59593;51.716;7.016;2022-10-26T14:21:01;24.00;99.90
71754;DHT22;59593;51.716;7.016;2022-10-26T14:23:35;23.80;99.90
71754;DHT22;59593;51.716;7.016;2022-10-26T14:26:03;23.50;99.90
71754;DHT22;59593;51.716;7.016;2022-10-26T14:28:38;23.70;99.90
71754;DHT22;59593;51.716;7.016;2022-10-26T14:31:22;23.50;99.90
71754;DHT22;59593;51.716;7.016;2022-10-26T14:33:48;23.40;99.90
71754;DHT22;59593;51.716;7.016;2022-10-26T14:36:14;23.40;99.90
71754;DHT22;59593;51.716;7.016;2022-10-26T14:38:44;23.30;99.90
71754;DHT22;59593;51.716;7.016;2022-10-26T14:41:16;23.60;99.90
71754;DHT22;59593;51.716;7.016;2022-10-26T14:43:43;23.80;99.90
71754;DHT22;59593;51.716;7.016;2022-10-26T14:46:16;23.90;99.90
71754;DHT22;59593;51.716;7.016;2022-10-26T14:48:56;23.50;99.90
71754;DHT22;59593;51.716;7.016;2022-10-26T14:51:28;23.40;99.90
71754;DHT22;59593;51.716;7.016;2022-10-26T14:53:57;23.20;99.90
71754;DHT22;59593;51.716;7.016;2022-10-26T14:59:10;23.30;99.90
71754;DHT22;59593;51.716;7.016;2022-10-26T15:04:41;23.00;99.90
71754;DHT22;59593;51.716;7.016;2022-10-26T15:07:20;22.90;99.90
71754;DHT22;59593;51.716;7.016;2022-10-26T15:09:48;22.80;99.90
71754;DHT22;59593;51.716;7.016;2022-10-26T15:12:39;22.50;99.90
71754;DHT22;59593;51.716;7.016;2022-10-26T15:17:54;21.80;99.90
71754;DHT22;59593;51.716;7.016;2022-10-26T15:20:23;21.40;99.90
71754;DHT22;59593;51.716;7.016;2022-10-26T15:22:54;21.30;99.90
71754;DHT22;59593;51.716;7.016;2022-10-26T15:25:23;21.20;99.90
71754;DHT22;59593;51.716;7.016;2022-10-26T15:27:49;21.00;99.90
71754;DHT22;59593;51.716;7.016;2022-10-26T15:32:44;20.70;99.90
71754;DHT22;59593;51.716;7.016;2022-10-26T15:37:38;20.40;99.90
71754;DHT22;59593;51.716;7.016;2022-10-26T15:40:04;20.40;99.90
71754;DHT22;59593;51.716;7.016;2022-10-26T15:42:30;20.30;99.90
71754;DHT22;59593;51.716;7.016;2022-10-26T15:44:57;20.30;99.90
71754;DHT22;59593;51.716;7.016;2022-10-26T15:47:28;20.30;99.90
71754;DHT22;59593;51.716;7.016;2022-10-26T15:49:54;20.20;99.90
71754;DHT22;59593;51.716;7.016;2022-10-26T15:52:20;20.10;99.90
71754;DHT22;59593;51.716;7.016;2022-10-26T15:54:46;19.90;99.90
71754;DHT22;59593;51.716;7.016;2022-10-26T15:57:12;19.90;99.90
71754;DHT22;59593;51.716;7.016;2022-10-26T15:59:38;19.80;99.90
71754;DHT22;59593;51.716;7.016;2022-10-26T16:02:16;19.70;99.90
71754;DHT22;59593;51.716;7.016;2022-10-26T16:04:42;19.50;99.90
71754;DHT22;59593;51.716;7.016;2022-10-26T16:07:12;19.50;99.90
71754;DHT22;59593;51.716;7.016;2022-10-26T16:09:38;19.40;99.90
71754;DHT22;59593;51.716;7.016;2022-10-26T16:12:07;19.40;99.90
71754;DHT22;59593;51.716;7.016;2022-10-26T16:14:33;19.30;99.90
71754;DHT22;59593;51.716;7.016;2022-10-26T16:16:59;19.20;99.90
71754;DHT22;59593;51.716;7.016;2022-10-26T16:19:24;19.20;99.90
71754;DHT22;59593;51.716;7.016;2022-10-26T16:21:50;19.00;99.90
71754;DHT22;59593;51.716;7.016;2022-10-26T16:24:16;18.90;99.90
71754;DHT22;59593;51.716;7.016;2022-10-26T16:26:42;18.80;99.90
71754;DHT22;59593;51.716;7.016;2022-10-26T16:29:07;18.60;99.90
71754;DHT22;59593;51.716;7.016;2022-10-26T16:31:33;18.50;99.90
71754;DHT22;59593;51.716;7.016;2022-10-26T16:33:58;18.40;99.90
71754;DHT22;59593;51.716;7.016;2022-10-26T16:36:24;18.20;99.90
71754;DHT22;59593;51.716;7.016;2022-10-26T16:38:50;18.10;99.90
71754;DHT22;59593;51.716;7.016;2022-10-26T16:41:16;18.00;99.90
71754;DHT22;59593;51.716;7.016;2022-10-26T16:43:42;17.90;99.90
71754;DHT22;59593;51.716;7.016;2022-10-26T16:46:17;17.70;99.90
71754;DHT22;59593;51.716;7.016;2022-10-26T16:48:44;17.60;99.90
71754;DHT22;59593;51.716;7.016;2022-10-26T16:53:46;17.40;99.90
71754;DHT22;59593;51.716;7.016;2022-10-26T16:56:14;17.30;99.90
71754;DHT22;59593;51.716;7.016;2022-10-26T16:58:40;17.10;99.90
71754;DHT22;59593;51.716;7.016;2022-10-26T17:01:07;17.00;99.90
71754;DHT22;59593;51.716;7.016;2022-10-26T17:03:33;17.00;99.90
71754;DHT22;59593;51.716;7.016;2022-10-26T17:06:02;17.20;99.90
71754;DHT22;59593;51.716;7.016;2022-10-26T17:08:30;17.40;99.90
71754;DHT22;59593;51.716;7.016;2022-10-26T17:13:30;17.50;99.90
71754;DHT22;59593;51.716;7.016;2022-10-26T17:16:07;17.50;99.90
71754;DHT22;59593;51.716;7.016;2022-10-26T17:18:34;17.40;99.90
71754;DHT22;59593;51.716;7.016;2022-10-26T17:20:59;17.50;99.90
71754;DHT22;59593;51.716;7.016;2022-10-26T17:23:25;17.40;99.90
71754;DHT22;59593;51.716;7.016;2022-10-26T17:25:51;17.40;99.90
71754;DHT22;59593;51.716;7.016;2022-10-26T17:28:16;17.40;99.90
71754;DHT22;59593;51.716;7.016;2022-10-26T17:30:42;17.40;99.90
71754;DHT22;59593;51.716;7.016;2022-10-26T17:33:09;17.40;99.90
71754;DHT22;59593;51.716;7.016;2022-10-26T17:35:35;17.30;99.90
71754;DHT22;59593;51.716;7.016;2022-10-26T17:38:00;17.40;99.90
71754;DHT22;59593;51.716;7.016;2022-10-26T17:40:26;17.40;99.90
71754;DHT22;59593;51.716;7.016;2022-10-26T17:42:52;17.40;99.90
71754;DHT22;59593;51.716;7.016;2022-10-26T17:45:17;17.40;99.90
71754;DHT22;59593;51.716;7.016;2022-10-26T17:47:43;17.30;99.90
71754;DHT22;59593;51.716;7.016;2022-10-26T17:50:08;17.40;99.90
71754;DHT22;59593;51.716;7.016;2022-10-26T17:52:35;17.40;99.90
71754;DHT22;59593;51.716;7.016;2022-10-26T17:55:01;17.40;99.90
71754;DHT22;59593;51.716;7.016;2022-10-26T17:57:26;17.40;99.90
71754;DHT22;59593;51.716;7.016;2022-10-26T17:59:52;17.40;99.90
71754;DHT22;59593;51.716;7.016;2022-10-26T18:02:18;17.30;99.90
71754;DHT22;59593;51.716;7.016;2022-10-26T18:04:43;17.30;99.90
71754;DHT22;59593;51.716;7.016;2022-10-26T18:07:10;17.30;99.90
71754;DHT22;59593;51.716;7.016;2022-10-26T18:09:36;17.30;99.90